METAR AND TAF INFORMATION
METAR FOR LBSF
ADDS - METARS form results

(0716 UTC 23 April 2018)
Data provider http://aviationweather.gov/adds/metars/
 
METAR text: LBSF 230700Z 29003KT 220V010 CAVOK 15/06 Q1017 NOSIG
Conditions at: LBSF (SOFIA , BG) observed 0700 UTC 23 April 2018
Temperature: 15.0°C (59°F)
Dewpoint: 6.0°C (43°F) [RH = 55%]
Pressure (altimeter): 30.03 inches Hg (1017.0 mb)
Winds: from the WNW (290 degrees) at 3 MPH (3 knots; 1.6 m/s)
Visibility: 6 or more miles (10+ km)
Ceiling: ceiling and visibility are OK
Clouds: unknown
Weather: no significant weather observed at this time

METAR text: LBSF 230630Z 19003KT 130V250 CAVOK 14/07 Q1017 NOSIG
Conditions at: LBSF (SOFIA , BG) observed 0630 UTC 23 April 2018
Temperature: 14.0°C (57°F)
Dewpoint: 7.0°C (45°F) [RH = 63%]
Pressure (altimeter): 30.03 inches Hg (1017.0 mb)
Winds: from the S (190 degrees) at 3 MPH (3 knots; 1.6 m/s)
Visibility: 6 or more miles (10+ km)
Ceiling: ceiling and visibility are OK
Clouds: unknown
Weather: no significant weather observed at this time

Forecast for: LBSF (SOFIA , BG)
Text: TAF LBSF 230500Z 2306/2406 VRB04KT CAVOK
Forecast period: 0600 to 0900 UTC 23 April 2018
Forecast type: FROM: standard forecast or significant change
Winds: variable direction winds at 5 MPH (4 knots; 2.1 m/s)
Visibility: 6 or more miles (10+ km)
Clouds: not forecast
Weather: NSW  (no significant weather)
Forecast for: LBSF (SOFIA , BG)
Text: TAF LBSF 230500Z 2306/2406 VRB04KT CAVOK
Forecast period: 0600 to 0900 UTC 23 April 2018
Forecast type: FROM: standard forecast or significant change
Winds: variable direction winds at 5 MPH (4 knots; 2.1 m/s)
Visibility: 6 or more miles (10+ km)
Clouds: not forecast
Weather: NSW  (no significant weather)
Forecast for: LBSF (SOFIA , BG)
Text: TAF LBSF 230500Z 2306/2406 VRB04KT CAVOK
Forecast period: 0900 to 1800 UTC 23 April 2018
Forecast type: BECOMING: Conditions expected to become as follows by 1100 UTC 23 April 2018
Winds: from the WNW (300 degrees) at 9 MPH (8 knots; 4.2 m/s)
Visibility: 6 or more miles (10+ km)
Weather: NSW  (no significant weather)
Forecast for: LBSF (SOFIA , BG)
Text: TAF LBSF 230500Z 2306/2406 VRB04KT CAVOK
Forecast period: 0900 to 1800 UTC 23 April 2018
Forecast type: BECOMING: Conditions expected to become as follows by 1100 UTC 23 April 2018
Winds: from the WNW (300 degrees) at 9 MPH (8 knots; 4.2 m/s)
Visibility: 6 or more miles (10+ km)
Weather: NSW  (no significant weather)
Forecast for: LBSF (SOFIA , BG)
Text: TAF LBSF 230500Z 2306/2406 VRB04KT CAVOK
Forecast period: 1800 UTC 23 April 2018 to 0600 UTC 24 April 2018
Forecast type: BECOMING: Conditions expected to become as follows by 2000 UTC 23 April 2018
Winds: variable direction winds at 5 MPH (4 knots; 2.1 m/s)
Visibility: 6 or more miles (10+ km)
Weather: NSW  (no significant weather)
Forecast for: LBSF (SOFIA , BG)
Text: TAF LBSF 230500Z 2306/2406 VRB04KT CAVOK
Forecast period: 1800 UTC 23 April 2018 to 0600 UTC 24 April 2018
Forecast type: BECOMING: Conditions expected to become as follows by 2000 UTC 23 April 2018
Winds: variable direction winds at 5 MPH (4 knots; 2.1 m/s)
Visibility: 6 or more miles (10+ km)
Weather: NSW  (no significant weather)
Forecast for: LBSF (SOFIA , BG)
Text: TAF LBSF 230500Z 2306/2406 VRB04KT CAVOK
Forecast period: 0200 to 0600 UTC 24 April 2018
Forecast type: TEMPORARY: The following changes expected for less than half the time period
Visibility: 3 miles (5 km)
Weather: BR  (mist)
Forecast for: LBSF (SOFIA , BG)
Text: TAF LBSF 230500Z 2306/2406 VRB04KT CAVOK
Forecast period: 0200 to 0600 UTC 24 April 2018
Forecast type: TEMPORARY: The following changes expected for less than half the time period
Visibility: 3 miles (5 km)
Weather: BR  (mist)

 AIRPORT MAP

 RUNWAY INFORMATION
Runway 09 Runway length 9186 ft Runway width 147 ft
Runway elevation 1739 ft Runway displaced threshold 0 ft Runway heading 95
Runway 27 Runway length 9186 ft Runway width 147 ft
Runway elevation 1742 ft Runway displaced threshold 0 ft Runway heading 275

 AIRPORT FREQUENCIES
Type APP Name APP Frequency 123.7 MHZ
Type ATIS Name ATIS Frequency 124.05 MHZ
Type TWR Name TWR Frequency 118.1 MHZ

 AIRPORT NEAR NAVIGATION AIDS
Type NDB Name Bozhourishte Frequency 312 KHZ
Type NDB Name Sofia Frequency 375 KHZ
Type NDB Name Sofia Frequency 335 KHZ
Type NDB Name Sofia Frequency 529 KHZ
Type VOR-DME Name Sofia Frequency 112600 KHZ
Type NDB Name Sofia Frequency 350 KHZ



Air Greece virtual AIrline - All rights reserved 2018 - Powered by Virtual Airlines Manager [v2.6.2]